Time;durP1;ratioP1;P1;durP2;ratioP2;P2;SDS_P1;SDS_P2;PMS_P1;PMS_P2;Temp;Humidity;BMP_temperature;BMP_pressure;BME280_temperature;BME280_humidity;BME280_pressure;Samples;Min_cycle;Max_cycle;Signal;HPM_P1;HPM_P2
2022/02/04 00:01:25;;;;;;;27.13;14.25;;;;;;;7.21;91.51;101103.75;5055491;28;20059;-63
2022/02/04 00:24:41;;;;;;;28.35;16.02;;;;;;;7.15;92.27;101047.84;4983893;28;20169;-62
2022/02/04 00:27:13;;;;;;;28.35;15.63;;;;;;;7.32;92.30;101080.31;5037157;28;20111;-62
2022/02/04 00:29:49;;;;;;;32.00;16.95;;;;;;;7.32;92.15;101080.31;5055565;28;20086;-62
2022/02/04 00:32:18;;;;;;;30.42;16.45;;;;;;;7.24;92.81;101073.38;5037081;28;20539;-62
2022/02/04 00:34:49;;;;;;;32.30;17.80;;;;;;;7.33;92.78;101078.56;5055225;28;20083;-62
2022/02/04 00:37:27;;;;;;;31.60;16.60;;;;;;;7.32;92.86;101072.63;5036882;28;20438;-62
2022/02/04 00:39:59;;;;;;;25.75;15.65;;;;;;;7.33;92.59;101073.41;5054875;28;20029;-62
2022/02/04 00:42:25;;;;;;;26.65;14.90;;;;;;;7.40;91.87;101080.34;5037002;28;20372;-63
2022/02/04 00:44:58;;;;;;;25.23;15.02;;;;;;;7.46;92.02;101068.63;5054723;28;20021;-63
2022/02/04 00:47:27;;;;;;;26.50;15.43;;;;;;;7.43;91.49;101063.78;5036765;28;20027;-63
2022/02/04 00:52:33;;;;;;;27.92;15.48;;;;;;;7.47;91.11;101047.06;5055251;28;20353;-63
2022/02/04 00:55:18;;;;;;;33.70;15.38;;;;;;;7.34;91.46;101064.75;5054524;28;20081;-63
2022/02/04 01:06:17;;;;;;;24.45;14.73;;;;;;;7.34;91.60;101049.34;5054696;28;20163;-64
2022/02/04 01:27:55;;;;;;;26.80;14.23;;;;;;;7.46;91.18;101048.84;5054453;28;20068;-62
2022/02/04 01:30:27;;;;;;;23.08;13.40;;;;;;;7.50;90.33;101051.09;5053812;28;20423;-63
2022/02/04 01:32:52;;;;;;;21.67;13.70;;;;;;;7.48;90.94;101046.13;5054040;28;20405;-63
2022/02/04 01:35:17;;;;;;;22.08;13.18;;;;;;;7.49;90.47;101052.88;5053669;28;20028;-63
2022/02/04 01:37:42;;;;;;;21.27;13.18;;;;;;;7.47;90.64;101047.06;5053623;28;20104;-63
2022/02/04 01:40:08;;;;;;;20.17;12.45;;;;;;;7.44;91.01;101044.81;5035963;28;20534;-62
2022/02/04 01:42:34;;;;;;;22.35;12.57;;;;;;;7.36;91.62;101047.38;5035557;28;20078;-63
2022/02/04 01:44:59;;;;;;;23.60;12.80;;;;;;;7.37;91.24;101042.09;5053498;28;20467;-62
2022/02/04 01:47:24;;;;;;;22.40;12.40;;;;;;;7.32;91.29;101036.63;5053487;28;20063;-63
2022/02/04 01:49:49;;;;;;;24.40;12.05;;;;;;;7.35;91.24;101038.88;5035495;28;20086;-63
2022/02/04 01:52:15;;;;;;;21.77;12.48;;;;;;;7.36;90.53;101042.25;5053338;28;20032;-63
2022/02/04 01:54:40;;;;;;;18.52;11.95;;;;;;;7.40;90.84;101039.19;5053551;28;20032;-62
2022/02/04 01:57:05;;;;;;;22.88;11.43;;;;;;;7.30;91.33;101032.59;5053293;28;20407;-62
2022/02/04 01:59:31;;;;;;;19.17;11.52;;;;;;;7.37;90.81;101028.44;5053223;28;20025;-62
2022/02/04 02:01:56;;;;;;;20.38;11.63;;;;;;;7.39;91.09;101027.31;5035392;28;20365;-62
2022/02/04 02:04:22;;;;;;;19.52;11.57;;;;;;;7.34;90.68;101027.00;5053165;28;20032;-62
2022/02/04 02:06:53;;;;;;;18.63;10.77;;;;;;;7.32;91.28;101025.53;5035235;28;20024;-63
2022/02/04 02:09:20;;;;;;;20.70;10.45;;;;;;;7.34;91.49;101028.75;5035387;28;20108;-62
2022/02/04 02:11:54;;;;;;;18.23;11.13;;;;;;;7.34;90.66;101024.41;5053511;28;20025;-62
2022/02/04 02:14:22;;;;;;;19.95;11.20;;;;;;;7.45;90.65;101010.41;5035223;28;20113;-62
2022/02/04 02:17:02;;;;;;;18.55;11.10;;;;;;;7.42;90.60;101008.19;5052644;28;20041;-62
2022/02/04 02:33:37;;;;;;;19.55;10.55;;;;;;;7.25;91.22;100986.81;5053574;28;20066;-62
2022/02/04 02:44:40;;;;;;;14.35;9.40;;;;;;;7.34;90.90;100969.63;4972744;28;20046;-62
2022/02/04 02:55:32;;;;;;;16.98;8.98;;;;;;;7.33;91.31;100973.16;5053112;28;20036;-62
2022/02/04 03:02:39;;;;;;;15.85;8.60;;;;;;;7.29;91.84;100946.16;5052739;28;20033;-62
2022/02/04 03:05:04;;;;;;;14.27;8.25;;;;;;;7.35;90.81;100948.09;5052499;28;20025;-62
2022/02/04 03:07:29;;;;;;;13.55;7.82;;;;;;;7.32;90.97;100951.78;5052669;28;20044;-62
2022/02/04 03:09:55;;;;;;;16.38;8.20;;;;;;;7.30;90.99;100950.34;5052588;28;20503;-62
2022/02/04 03:12:20;;;;;;;19.58;8.45;;;;;;;7.32;90.90;100950.97;5052552;28;20025;-63
2022/02/04 03:14:45;;;;;;;12.52;7.18;;;;;;;7.36;90.99;100947.13;5052625;28;20069;-64
2022/02/04 03:17:13;;;;;;;13.32;7.65;;;;;;;7.35;90.24;100948.88;5034481;28;20495;-63
2022/02/04 03:19:41;;;;;;;13.45;6.88;;;;;;;7.40;90.46;100944.06;5034708;28;20053;-63
2022/02/04 03:22:11;;;;;;;14.30;7.90;;;;;;;7.40;90.71;100941.50;5052712;28;20100;-63
2022/02/04 03:24:36;;;;;;;13.77;7.65;;;;;;;7.42;90.30;100931.03;5034660;28;20025;-63
2022/02/04 03:27:08;;;;;;;13.32;7.55;;;;;;;7.45;90.79;100930.72;5034516;28;20551;-63
2022/02/04 03:32:20;;;;;;;14.80;8.02;;;;;;;7.30;90.50;100915.13;5056739;28;20090;-62
2022/02/04 03:34:45;;;;;;;14.20;7.43;;;;;;;7.37;90.01;100915.31;5055930;28;20048;-63
2022/02/04 03:37:11;;;;;;;15.07;8.43;;;;;;;7.39;90.58;100919.34;5055757;28;20017;-63
2022/02/04 03:39:36;;;;;;;15.25;7.40;;;;;;;7.43;90.20;100923.16;5037950;28;20027;-63
2022/02/04 03:42:01;;;;;;;14.25;7.68;;;;;;;7.41;90.18;100927.66;5037832;28;20031;-63
2022/02/04 03:44:27;;;;;;;12.38;7.43;;;;;;;7.38;89.72;100919.47;5055786;28;20025;-63
2022/02/04 03:46:52;;;;;;;16.48;7.57;;;;;;;7.37;89.99;100920.47;5055792;28;20075;-61
2022/02/04 03:49:17;;;;;;;14.32;7.45;;;;;;;7.30;90.96;100930.56;5055570;28;20037;-64
2022/02/04 03:51:42;;;;;;;15.05;6.93;;;;;;;7.26;90.55;100913.06;5037758;28;20535;-63
2022/02/04 03:54:08;;;;;;;15.18;7.40;;;;;;;7.36;90.02;100914.50;5055531;28;20025;-63
2022/02/04 03:56:33;;;;;;;14.20;7.28;;;;;;;7.37;89.50;100907.59;5055503;28;20028;-64
2022/02/04 03:58:58;;;;;;;14.93;7.50;;;;;;;7.44;89.01;100906.78;5056038;28;20029;-64
2022/02/04 04:01:23;;;;;;;13.43;7.65;;;;;;;7.44;89.19;100911.91;5055507;28;20036;-63
2022/02/04 04:03:49;;;;;;;16.27;7.47;;;;;;;7.42;89.14;100907.91;5055329;28;20457;-63
2022/02/04 04:06:15;;;;;;;18.85;7.32;;;;;;;7.43;89.73;100909.53;5055700;28;20025;-64
2022/02/04 04:08:41;;;;;;;14.95;7.72;;;;;;;7.42;89.63;100907.91;5037330;28;20017;-63
2022/02/04 04:11:06;;;;;;;14.48;7.93;;;;;;;7.38;89.89;100924.63;5037431;28;20051;-61
2022/02/04 04:13:31;;;;;;;13.52;7.32;;;;;;;7.42;89.69;100919.00;5055282;28;20029;-61
2022/02/04 04:15:57;;;;;;;15.02;6.60;;;;;;;7.43;89.67;100910.31;5037032;28;20052;-62
2022/02/04 04:18:22;;;;;;;14.70;7.43;;;;;;;7.44;89.68;100913.69;5055218;28;20078;-62
2022/02/04 04:20:48;;;;;;;12.23;7.20;;;;;;;7.42;89.95;100913.88;5055104;28;20032;-62
2022/02/04 04:23:13;;;;;;;13.60;6.57;;;;;;;7.46;89.18;100910.00;5037124;28;20063;-62
2022/02/04 04:25:39;;;;;;;12.38;6.63;;;;;;;7.52;88.58;100900.03;5055255;28;20063;-62
2022/02/04 04:28:05;;;;;;;12.75;6.43;;;;;;;7.49;89.03;100895.22;5054906;28;20032;-62
2022/02/04 04:30:30;;;;;;;14.05;6.20;;;;;;;7.49;88.55;100906.28;5054903;28;20064;-62
2022/02/04 04:32:57;;;;;;;12.35;6.50;;;;;;;7.30;89.43;100886.06;5036928;28;20456;-63
2022/02/04 04:35:25;;;;;;;11.90;6.25;;;;;;;7.41;88.68;100901.16;5054845;28;20036;-62
2022/02/04 05:26:28;;;;;;;13.50;5.50;;;;;;;7.30;88.66;100862.94;5054652;28;20043;-62
2022/02/04 05:31:19;;;;;;;11.43;5.40;;;;;;;7.31;88.76;100865.34;5053705;28;20055;-62
2022/02/04 05:33:44;;;;;;;9.82;4.78;;;;;;;7.29;88.23;100851.84;5053602;28;20096;-61
2022/02/04 05:36:11;;;;;;;11.30;5.05;;;;;;;7.16;89.00;100842.09;5035663;28;20024;-62
2022/02/04 05:38:37;;;;;;;10.15;4.93;;;;;;;7.29;88.70;100849.28;5054153;28;20096;-61
2022/02/04 05:41:04;;;;;;;9.75;5.40;;;;;;;7.33;88.81;100842.84;5053539;28;20047;-62
2022/02/04 05:43:33;;;;;;;13.07;6.80;;;;;;;7.33;88.85;100847.97;5053451;28;20460;-62
2022/02/04 05:46:02;;;;;;;9.65;4.75;;;;;;;7.33;88.63;100839.47;5053406;28;20051;-62
2022/02/04 05:48:30;;;;;;;7.93;4.45;;;;;;;7.28;88.77;100837.41;5053700;28;20024;-62
2022/02/04 05:53:27;;;;;;;7.90;4.38;;;;;;;7.27;89.00;100825.50;5053283;28;20479;-61
2022/02/04 05:58:38;;;;;;;9.45;3.65;;;;;;;7.31;88.69;100810.53;5053687;28;20029;-62
2022/02/04 06:14:26;;;;;;;6.63;3.30;;;;;;;7.30;88.45;100796.88;5053644;28;20182;-61
2022/02/04 06:22:20;;;;;;;5.65;3.70;;;;;;;7.28;89.51;100798.03;5053719;28;20095;-63
2022/02/04 06:24:47;;;;;;;8.88;3.50;;;;;;;7.22;89.31;100794.34;5052891;28;20036;-63
2022/02/04 06:27:13;;;;;;;6.57;3.17;;;;;;;7.18;88.95;100796.44;5053091;28;20024;-62
2022/02/04 06:29:38;;;;;;;6.80;3.60;;;;;;;7.27;88.50;100801.56;5035110;28;20029;-62
2022/02/04 06:32:04;;;;;;;9.15;3.60;;;;;;;7.27;88.84;100801.56;5053059;28;20166;-62
2022/02/04 06:34:29;;;;;;;5.53;3.25;;;;;;;7.29;89.02;100808.16;5053103;28;20032;-61
2022/02/04 06:36:55;;;;;;;7.68;3.47;;;;;;;7.31;89.06;100795.94;5052690;28;20360;-63
2022/02/04 06:39:20;;;;;;;7.43;3.72;;;;;;;7.32;88.84;100805.25;5052749;28;20367;-61
2022/02/04 06:41:46;;;;;;;7.90;3.58;;;;;;;7.36;88.79;100806.50;5052808;28;20037;-64
2022/02/04 06:44:11;;;;;;;8.48;3.97;;;;;;;7.38;88.91;100802.00;5034904;28;20102;-62
2022/02/04 06:46:36;;;;;;;6.70;3.47;;;;;;;7.27;89.35;100792.09;5034247;28;20028;-65
2022/02/04 06:49:02;;;;;;;6.70;3.55;;;;;;;7.37;89.23;100794.47;5050690;28;20027;-64
2022/02/04 06:51:27;;;;;;;10.43;3.78;;;;;;;7.37;89.18;100807.34;5050781;28;20077;-62
2022/02/04 06:53:52;;;;;;;12.10;3.92;;;;;;;7.39;88.80;100797.66;5051109;28;20025;-63
2022/02/04 06:56:18;;;;;;;6.07;3.80;;;;;;;7.42;88.70;100794.75;5051281;28;20106;-63
2022/02/04 06:58:43;;;;;;;8.82;4.07;;;;;;;7.42;89.24;100795.59;5051251;28;20021;-63
2022/02/04 07:01:09;;;;;;;8.10;4.10;;;;;;;7.43;89.03;100796.38;5050218;28;20112;-64
2022/02/04 07:03:34;;;;;;;8.48;4.43;;;;;;;7.47;88.50;100797.66;5049449;28;20025;-63
2022/02/04 07:06:02;;;;;;;12.52;4.72;;;;;;;7.30;89.15;100776.31;5035268;28;20033;-64
2022/02/04 07:08:46;;;;;;;13.13;4.90;;;;;;;7.41;89.26;100793.16;5036571;28;20449;-61
2022/02/04 07:16:36;;;;;;;10.85;4.95;;;;;;;7.57;88.68;100782.03;5053855;28;20135;-64
2022/02/04 07:21:46;;;;;;;7.38;4.80;;;;;;;7.51;89.68;100778.38;5056086;28;20053;-62
2022/02/04 07:24:12;;;;;;;9.70;5.22;;;;;;;7.53;89.67;100780.75;5037990;28;20108;-63
2022/02/04 07:26:37;;;;;;;8.13;5.07;;;;;;;7.49;90.11;100767.44;5038156;28;20027;-62
2022/02/04 07:29:03;;;;;;;8.13;4.78;;;;;;;7.58;89.71;100781.84;5037247;28;20064;-62
2022/02/04 07:31:32;;;;;;;8.80;5.15;;;;;;;7.63;89.37;100766.72;5054509;28;20020;-65
2022/02/04 07:34:21;;;;;;;11.40;4.80;;;;;;;7.63;89.49;100765.94;5053241;28;20027;-64
2022/02/04 07:41:59;;;;;;;8.25;5.03;;;;;;;7.65;89.80;100771.69;5053687;28;20029;-63
2022/02/04 07:44:24;;;;;;;9.88;4.93;;;;;;;7.64;89.22;100777.81;5053648;28;20078;-65
2022/02/04 07:46:50;;;;;;;9.07;5.10;;;;;;;7.62;90.16;100772.84;5036801;28;20086;-64
2022/02/04 07:49:15;;;;;;;9.90;6.20;;;;;;;7.65;89.28;100779.41;5055790;28;20434;-65
2022/02/04 07:51:40;;;;;;;9.77;5.97;;;;;;;7.63;89.82;100771.88;5056109;28;20032;-64
2022/02/04 07:54:06;;;;;;;15.63;6.28;;;;;;;7.62;89.80;100759.16;5055703;28;20466;-62
2022/02/04 07:56:32;;;;;;;13.05;6.25;;;;;;;7.66;90.26;100763.81;5037613;28;20025;-63
2022/02/04 07:59:00;;;;;;;10.68;6.10;;;;;;;7.68;89.64;100754.19;5055280;28;20036;-63
2022/02/04 08:01:30;;;;;;;8.40;6.13;;;;;;;7.62;89.68;100760.00;5037529;28;20025;-63
2022/02/04 08:04:03;;;;;;;11.60;6.45;;;;;;;7.68;89.69;100764.47;5055564;28;20495;-64
2022/02/04 08:06:32;;;;;;;9.18;5.85;;;;;;;7.71;89.33;100747.91;5055544;28;20066;-64
2022/02/04 08:09:14;;;;;;;8.52;5.80;;;;;;;7.80;89.27;100758.94;5037589;28;20033;-64
2022/02/04 08:53:36;;;;;;;10.25;6.57;;;;;;;8.11;87.88;100702.28;5021196;28;20040;-63
2022/02/04 08:55:57;;;;;;;9.60;6.18;;;;;;;8.09;87.71;100691.38;5053639;28;20032;-62
2022/02/04 08:59:11;;;;;;;8.43;6.13;;;;;;;8.09;87.69;100687.03;5054594;28;20017;-63
2022/02/04 09:01:19;;;;;;;7.95;5.72;;;;;;;8.12;87.30;100689.25;5046023;28;20142;-62
2022/02/04 09:06:14;;;;;;;10.77;5.60;;;;;;;8.25;87.74;100683.50;5054721;28;19915;-63
2022/02/04 09:08:53;;;;;;;8.25;5.38;;;;;;;8.26;87.23;100692.84;5054392;28;20267;-62
2022/02/04 09:19:58;;;;;;;8.75;4.88;;;;;;;8.39;86.01;100681.97;5054322;28;20094;-62
2022/02/04 09:24:49;;;;;;;8.32;5.40;;;;;;;8.27;85.70;100647.31;5054149;28;20115;-63
2022/02/04 09:27:15;;;;;;;9.65;4.55;;;;;;;8.37;85.54;100665.84;5052219;28;20104;-63
2022/02/04 09:29:41;;;;;;;8.63;4.85;;;;;;;8.40;85.59;100664.75;5053631;28;20529;-62
2022/02/04 09:32:06;;;;;;;8.88;4.95;;;;;;;8.43;85.83;100648.94;5035711;28;20037;-64
2022/02/04 09:34:32;;;;;;;6.35;4.90;;;;;;;8.49;85.12;100648.25;5053784;28;20490;-63
2022/02/04 09:36:57;;;;;;;9.77;4.95;;;;;;;8.40;85.70;100641.56;5053642;28;20383;-63
2022/02/04 09:39:23;;;;;;;7.88;5.20;;;;;;;8.41;86.67;100640.59;5034930;28;20025;-63
2022/02/04 09:41:48;;;;;;;6.43;4.70;;;;;;;8.46;85.67;100633.13;5051553;28;20036;-64
2022/02/04 09:44:13;;;;;;;8.07;5.00;;;;;;;8.42;86.10;100626.75;5052163;28;20028;-65
2022/02/04 09:46:39;;;;;;;7.78;5.45;;;;;;;8.49;85.93;100632.81;5035574;28;20021;-63
2022/02/04 09:49:11;;;;;;;8.60;5.45;;;;;;;8.46;85.78;100623.66;5035488;28;20028;-63
2022/02/04 10:08:41;;;;;;;6.85;4.93;;;;;;;8.86;84.64;100624.19;5013687;28;20130;-64
2022/02/04 10:19:49;;;;;;;8.50;4.47;;;;;;;8.78;83.73;100612.19;5053710;28;20090;-63
2022/02/04 10:22:18;;;;;;;7.00;4.15;;;;;;;8.95;82.70;100609.44;5053284;28;20025;-64
2022/02/04 10:24:53;;;;;;;6.82;3.92;;;;;;;8.92;82.68;100614.91;5053229;28;20060;-62
2022/02/04 10:27:21;;;;;;;8.15;3.90;;;;;;;8.91;83.40;100606.38;5053864;28;20352;-63
2022/02/04 10:30:00;;;;;;;5.25;3.97;;;;;;;8.89;83.30;100600.63;5034564;28;20028;-63
2022/02/04 10:32:36;;;;;;;7.28;4.18;;;;;;;8.93;82.89;100601.06;5052147;28;20387;-64
2022/02/04 10:35:07;;;;;;;5.22;3.90;;;;;;;8.95;83.11;100588.81;5052023;28;20052;-63
2022/02/04 10:37:35;;;;;;;6.07;3.90;;;;;;;9.09;82.74;100576.84;5053202;28;20029;-64
2022/02/04 10:40:13;;;;;;;9.77;3.80;;;;;;;9.17;82.95;100572.38;5038413;28;20476;-63
2022/02/04 10:45:23;;;;;;;5.53;3.92;;;;;;;9.26;81.54;100557.59;5056393;28;20059;-62
2022/02/04 10:48:29;;;;;;;5.88;3.47;;;;;;;9.15;81.29;100566.63;5055378;28;20417;-64
2022/02/04 10:56:38;;;;;;;5.70;4.00;;;;;;;9.13;81.20;100547.16;5056175;28;20067;-62
2022/02/04 11:04:18;;;;;;;7.10;3.75;;;;;;;8.84;82.25;100554.00;5057372;28;20102;-61
2022/02/04 11:09:49;;;;;;;7.80;3.95;;;;;;;8.86;81.49;100534.00;5056855;28;20450;-62
2022/02/04 11:35:11;;;;;;;6.85;3.50;;;;;;;8.93;81.40;100491.03;5056773;28;20450;-63
2022/02/04 11:52:32;;;;;;;4.63;3.53;;;;;;;8.68;80.84;100462.22;5056189;28;20082;-62
2022/02/04 11:55:09;;;;;;;6.43;3.70;;;;;;;8.56;80.53;100449.03;5055908;28;20033;-66
2022/02/04 11:57:37;;;;;;;6.43;3.42;;;;;;;8.50;81.16;100430.94;5053900;28;20064;-63
2022/02/04 12:00:20;;;;;;;6.85;3.30;;;;;;;8.59;81.20;100448.66;5053698;28;20491;-63
2022/02/04 12:02:52;;;;;;;;;;;;;;;8.60;80.10;100431.44;5054159;28;20025;-62
2022/02/04 12:05:18;;;;;;;6.93;3.15;;;;;;;8.57;80.76;100432.63;5035475;28;20291;-64
2022/02/04 12:07:53;;;;;;;5.90;3.55;;;;;;;8.45;81.17;100452.06;5053592;28;20021;-64
2022/02/04 12:10:22;;;;;;;8.35;3.60;;;;;;;8.31;82.44;100417.63;5035418;28;20111;-63
2022/02/04 12:13:00;;;;;;;5.63;4.05;;;;;;;8.42;84.36;100398.34;5055435;28;20541;-63
2022/02/04 12:15:31;;;;;;;6.75;3.85;;;;;;;8.48;83.39;100420.81;5055322;28;20104;-61
2022/02/04 12:18:02;;;;;;;7.05;3.83;;;;;;;8.41;83.07;100404.50;5034787;28;20060;-62
2022/02/04 12:23:26;;;;;;;6.15;3.60;;;;;;;8.28;84.16;100402.53;5053608;28;20040;-64
2022/02/04 12:25:55;;;;;;;6.15;3.60;;;;;;;8.30;84.36;100392.84;5035105;28;20111;-63
2022/02/04 12:28:39;;;;;;;6.93;3.60;;;;;;;8.35;84.98;100374.31;5053431;28;20017;-62
2022/02/04 12:31:31;;;;;;;7.70;3.47;;;;;;;8.21;84.87;100385.44;5053545;28;20020;-61
2022/02/04 12:33:58;;;;;;;10.80;3.50;;;;;;;8.20;85.57;100386.38;5054578;28;20365;-63
2022/02/04 12:36:39;;;;;;;7.85;3.55;;;;;;;8.17;85.87;100369.56;5053739;28;20075;-64
2022/02/04 12:39:10;;;;;;;7.10;3.92;;;;;;;8.27;85.52;100366.69;5035863;28;20033;-65
2022/02/04 12:41:39;;;;;;;5.72;3.42;;;;;;;8.11;86.29;100358.22;5053241;28;20396;-66
2022/02/04 12:44:10;;;;;;;6.45;3.53;;;;;;;8.01;85.65;100349.16;5054885;28;20068;-63
2022/02/04 12:46:39;;;;;;;7.80;3.92;;;;;;;8.17;86.52;100361.00;5037169;28;20032;-64
2022/02/04 12:49:09;;;;;;;6.15;3.70;;;;;;;8.05;87.51;100366.63;5053719;28;20074;-63
2022/02/04 12:52:07;;;;;;;7.20;3.88;;;;;;;7.95;87.30;100348.13;5055177;28;20025;-64
2022/02/04 12:54:46;;;;;;;11.30;4.30;;;;;;;8.00;88.26;100350.94;5054139;28;20021;-64
2022/02/04 13:10:58;;;;;;;4.75;3.28;;;;;;;7.56;89.64;100295.19;5052903;28;20194;-64
2022/02/04 13:13:24;;;;;;;6.88;4.10;;;;;;;7.71;90.07;100310.63;5034141;28;20025;-65
2022/02/04 13:15:51;;;;;;;9.00;3.88;;;;;;;7.67;90.79;100306.81;5052154;28;20133;-65
2022/02/04 13:18:17;;;;;;;7.60;3.42;;;;;;;7.73;89.39;100303.50;5052576;28;20032;-65
2022/02/04 13:20:49;;;;;;;5.93;3.55;;;;;;;7.80;89.89;100304.41;5053687;28;20024;-66
2022/02/04 13:23:15;;;;;;;6.97;3.70;;;;;;;7.72;90.05;100296.78;5053519;28;20020;-65
2022/02/04 13:25:49;;;;;;;8.63;3.50;;;;;;;7.61;90.39;100294.66;5054131;28;20035;-64
2022/02/04 13:28:17;;;;;;;13.48;3.95;;;;;;;7.66;89.97;100292.38;5054502;28;20188;-65
2022/02/04 13:31:03;;;;;;;8.82;3.42;;;;;;;7.62;91.36;100311.69;5053249;28;20033;-65
2022/02/04 13:33:38;;;;;;;11.32;3.70;;;;;;;7.60;92.05;100306.72;5043537;28;20529;-66
2022/02/04 13:36:54;;;;;;;9.48;4.25;;;;;;;7.61;93.32;100334.03;5053866;28;20029;-65
2022/02/04 13:39:17;;;;;;;7.97;2.60;;;;;;;7.05;92.33;100367.06;5046379;28;20068;-68
2022/02/04 13:44:25;;;;;;;3.20;1.10;;;;;;;6.04;92.34;100385.94;5051883;28;20476;-66
2022/02/04 13:57:24;;;;;;;6.53;1.83;;;;;;;5.48;90.86;100423.59;5050017;28;20237;-65
2022/02/04 14:00:00;;;;;;;3.25;1.00;;;;;;;5.37;90.71;100429.84;5052074;28;20478;-66
2022/02/04 14:02:32;;;;;;;9.60;2.45;;;;;;;5.33;90.25;100437.03;5051571;28;20025;-66
2022/02/04 14:05:01;;;;;;;12.05;2.97;;;;;;;5.26;90.46;100445.53;5052318;28;20024;-65
2022/02/04 14:07:44;;;;;;;3.95;1.55;;;;;;;4.94;91.16;100457.34;5036174;28;20067;-65
2022/02/04 14:10:28;;;;;;;3.03;1.80;;;;;;;4.96;92.30;100466.47;5053249;28;20345;-65
2022/02/04 14:13:07;;;;;;;6.07;1.40;;;;;;;4.90;91.89;100463.75;5035219;28;20442;-63
2022/02/04 14:15:35;;;;;;;3.63;1.48;;;;;;;4.85;91.77;100482.13;5053259;28;20045;-64
2022/02/04 14:18:12;;;;;;;1.10;0.82;;;;;;;4.83;92.04;100484.03;5053907;28;20032;-63
2022/02/04 14:20:41;;;;;;;4.68;0.98;;;;;;;4.68;90.98;100483.06;5053625;28;20372;-63
2022/02/04 14:23:11;;;;;;;2.38;1.08;;;;;;;4.68;91.69;100499.22;5053252;28;20448;-62
2022/02/04 14:26:18;;;;;;;2.22;1.10;;;;;;;4.67;92.90;100502.72;5053939;28;20514;-62
2022/02/04 14:28:47;;;;;;;0.93;0.70;;;;;;;4.62;92.37;100509.28;5051645;28;20029;-64
2022/02/04 14:31:19;;;;;;;2.30;1.48;;;;;;;4.81;92.41;100513.34;5053146;28;20021;-66
2022/02/04 14:36:41;;;;;;;2.97;1.10;;;;;;;4.65;91.70;100520.00;5052798;28;20365;-65
2022/02/04 14:52:52;;;;;;;1.45;0.85;;;;;;;4.57;92.23;100552.44;5053391;28;20037;-64
2022/02/04 15:00:50;;;;;;;1.58;0.90;;;;;;;4.73;92.04;100570.44;5053171;28;20091;-64
2022/02/04 15:03:21;;;;;;;2.10;0.98;;;;;;;4.74;92.72;100579.69;5053065;28;20029;-64
2022/02/04 15:05:59;;;;;;;1.75;1.25;;;;;;;4.83;92.29;100588.22;5052991;28;20021;-64
2022/02/04 15:08:25;;;;;;;3.20;1.05;;;;;;;4.80;92.94;100602.13;5035123;28;20435;-63
2022/02/04 15:10:50;;;;;;;2.50;1.15;;;;;;;4.95;92.65;100612.63;5052935;28;20052;-64
2022/02/04 15:13:17;;;;;;;7.03;2.95;;;;;;;5.11;92.43;100612.66;5052948;28;20025;-63
2022/02/04 15:15:43;;;;;;;2.33;0.82;;;;;;;4.71;90.54;100611.53;5034892;28;20045;-64
2022/02/04 15:18:09;;;;;;;2.72;1.10;;;;;;;4.84;90.29;100634.16;5052916;28;20033;-64
2022/02/04 15:20:34;;;;;;;1.67;0.93;;;;;;;4.70;90.78;100640.66;5035581;28;20078;-65
2022/02/04 15:23:00;;;;;;;1.95;0.90;;;;;;;4.44;91.66;100627.88;5052413;28;20425;-65
2022/02/04 15:25:26;;;;;;;5.25;1.20;;;;;;;4.56;92.24;100655.78;5054712;28;20036;-64
2022/02/04 15:30:30;;;;;;;5.65;2.15;;;;;;;4.57;92.57;100670.97;5055026;28;20054;-65
2022/02/04 15:32:56;;;;;;;14.05;5.20;;;;;;;4.70;93.20;100681.63;5036715;28;20021;-65
2022/02/04 15:35:22;;;;;;;5.97;2.15;;;;;;;4.44;92.69;100662.88;5055548;28;20036;-64
2022/02/04 15:37:47;;;;;;;10.05;4.07;;;;;;;4.58;92.27;100693.06;5037995;28;20029;-65
2022/02/04 15:40:13;;;;;;;4.63;2.10;;;;;;;4.56;93.53;100699.28;5055330;28;20025;-64
2022/02/04 15:42:43;;;;;;;6.70;2.47;;;;;;;4.56;91.93;100712.88;5038251;28;20017;-65
2022/02/04 15:45:51;;;;;;;3.88;1.77;;;;;;;4.66;91.91;100718.72;5038371;28;20379;-64
2022/02/04 15:50:45;;;;;;;;;;;;;;;4.48;91.73;100738.41;5056701;28;20052;-64
2022/02/04 15:58:22;;;;;;;2.85;1.30;;;;;;;4.50;91.60;100767.22;5054490;28;20123;-63
2022/02/04 16:03:39;;;;;;;3.92;1.20;;;;;;;4.34;91.89;100774.75;5055772;28;20025;-62
2022/02/04 16:06:05;;;;;;;5.55;1.90;;;;;;;4.49;91.69;100786.09;5056338;28;20032;-62
2022/02/04 16:08:31;;;;;;;3.65;1.83;;;;;;;4.48;91.75;100792.94;5038030;28;20032;-62
2022/02/04 16:11:07;;;;;;;8.18;3.20;;;;;;;4.51;90.93;100781.59;5037568;28;20024;-61
2022/02/04 16:13:46;;;;;;;9.90;3.22;;;;;;;4.50;91.24;100792.81;5055313;28;20103;-63
2022/02/04 16:18:55;;;;;;;10.25;3.80;;;;;;;4.48;91.73;100780.16;5055124;28;20051;-63
2022/02/04 16:21:26;;;;;;;4.75;2.35;;;;;;;4.56;91.01;100796.53;5055241;28;20032;-64
2022/02/04 16:24:41;;;;;;;4.70;1.40;;;;;;;4.59;90.93;100797.03;5055049;28;20075;-65
2022/02/04 16:29:44;;;;;;;4.22;1.55;;;;;;;4.65;89.79;100823.81;5008948;28;20037;-63
2022/02/04 16:32:12;;;;;;;5.70;1.92;;;;;;;4.57;89.77;100834.75;5036603;28;20021;-60
2022/02/04 16:34:38;;;;;;;11.38;4.30;;;;;;;4.50;90.63;100841.44;5035791;28;20127;-63
2022/02/04 16:37:15;;;;;;;146.15;67.60;;;;;;;4.51;89.89;100848.16;5053607;28;20100;-64
2022/02/04 16:39:40;;;;;;;9.55;4.55;;;;;;;4.50;90.42;100860.16;5053711;28;20021;-66
2022/02/04 16:42:11;;;;;;;87.22;27.30;;;;;;;4.42;90.28;100862.63;5034611;28;20029;-66
2022/02/04 16:44:38;;;;;;;34.38;12.88;;;;;;;4.42;90.57;100860.06;5034800;28;20392;-64
2022/02/04 16:47:04;;;;;;;9.95;4.13;;;;;;;4.30;90.52;100869.69;5054558;28;20059;-62
2022/02/04 16:49:30;;;;;;;9.90;2.25;;;;;;;4.27;88.92;100876.84;5035745;28;20032;-63
2022/02/04 16:51:56;;;;;;;11.35;2.10;;;;;;;4.19;90.26;100880.13;5034584;28;20017;-65
2022/02/04 16:54:24;;;;;;;6.07;1.30;;;;;;;4.05;88.55;100881.38;5036010;28;20439;-63
2022/02/04 16:56:51;;;;;;;6.63;1.45;;;;;;;4.01;89.45;100885.19;5054509;28;20063;-64
2022/02/04 16:59:17;;;;;;;5.18;1.52;;;;;;;3.89;88.48;100878.66;5053424;28;20033;-65
2022/02/04 17:01:42;;;;;;;5.88;1.55;;;;;;;3.89;88.76;100891.44;5035252;28;20112;-65
2022/02/04 17:04:08;;;;;;;6.57;1.80;;;;;;;3.97;88.23;100899.22;5054261;28;20029;-65
2022/02/04 17:06:38;;;;;;;5.57;1.42;;;;;;;3.90;89.38;100908.38;5051932;28;20104;-66
2022/02/04 17:09:20;;;;;;;11.63;2.17;;;;;;;3.75;89.25;100913.13;5052596;28;20028;-63
2022/02/04 17:11:49;;;;;;;5.20;1.70;;;;;;;3.83;89.14;100920.13;5052257;28;20129;-64
2022/02/04 17:14:15;;;;;;;10.70;1.80;;;;;;;3.75;90.33;100928.47;5052569;28;20036;-62
2022/02/04 17:16:42;;;;;;;4.30;2.03;;;;;;;3.82;90.21;100915.94;5031368;28;20045;-63
2022/02/04 17:19:09;;;;;;;9.68;1.80;;;;;;;3.87;91.27;100925.75;5032825;28;20113;-64
2022/02/04 17:21:35;;;;;;;10.32;2.17;;;;;;;3.77;90.85;100929.16;5032833;28;20023;-64
2022/02/04 17:24:01;;;;;;;9.60;2.50;;;;;;;3.81;91.53;100945.00;5033099;28;20033;-62
2022/02/04 17:26:27;;;;;;;9.65;2.20;;;;;;;3.77;90.55;100939.38;5030957;28;20094;-63
2022/02/04 17:28:54;;;;;;;7.35;2.15;;;;;;;3.81;91.78;100952.69;5031031;28;20037;-63
2022/02/04 17:31:20;;;;;;;15.75;2.53;;;;;;;3.84;91.40;100953.19;5030650;28;20028;-65
2022/02/04 17:33:46;;;;;;;10.77;2.45;;;;;;;4.11;91.01;100955.94;5031006;28;20029;-63
2022/02/04 17:36:12;;;;;;;13.02;2.38;;;;;;;4.13;90.99;100959.19;5030982;28;20112;-62
2022/02/04 17:38:37;;;;;;;13.20;2.42;;;;;;;4.07;90.55;100946.00;5032704;28;20081;-63
2022/02/04 17:41:03;;;;;;;9.05;2.40;;;;;;;4.24;90.34;100966.69;5032347;28;20021;-62
2022/02/04 17:43:29;;;;;;;9.55;2.92;;;;;;;4.19;91.09;100951.75;5033253;28;20121;-63
2022/02/04 17:45:55;;;;;;;12.85;2.88;;;;;;;4.33;92.22;100983.75;5033756;28;20400;-62
2022/02/04 17:50:56;;;;;;;14.75;3.38;;;;;;;4.53;91.72;101000.63;5034100;28;20033;-63
2022/02/04 17:53:26;;;;;;;11.85;3.38;;;;;;;4.50;92.32;101003.47;5032039;28;20491;-64
2022/02/04 17:55:58;;;;;;;17.33;3.25;;;;;;;4.23;91.48;100977.84;5032959;28;20021;-61
2022/02/04 17:58:32;;;;;;;13.05;3.47;;;;;;;4.49;91.78;101001.06;5031749;28;20032;-64
2022/02/04 18:01:37;;;;;;;16.23;3.22;;;;;;;4.49;90.99;101006.97;5030093;28;20029;-64
2022/02/04 18:06:33;;;;;;;16.50;3.55;;;;;;;4.62;89.64;101005.84;5032022;28;20033;-64
2022/02/04 18:08:59;;;;;;;16.48;3.50;;;;;;;4.67;90.60;101022.38;5029789;28;20534;-64